Spencer, Oklahoma
Current Conditions -  °F | °C
As of 1:11 AM on Friday 19 Dec 2014 (Local Time) from KTIK Reporting Station
Drizzle Drizzle  
Wind Chill: 36°   Ceiling: 300
Heat Index: 39°   Visibility: 3mi
Dew Point: 37°   Wind: 5mph
Humidity: 93%   Direction: 50°NE
Pressure: 30.21"   Gusts: NA
Location:  35.52°N, 97.38°W
Report Text: KTIK 190711Z AUTO 05004KT 3SM DZ BR OVC003 04/03 A3021 RMK AO2
Loading
Personal Weather Stations






























Interactive Weather Map New forecast layout! Learn more

10-Day Weather Forecast

Advertisements
Track Severe Weather on mobile